Castle Point, New York
Current Conditions -  °F | °C
As of 9:53 PM on Tuesday 21 Oct 2014 (Local Time) from KPOU Reporting Station
Light Rain Light Rain  
Wind Chill: 53°   Ceiling: 600
Heat Index: 53°   Visibility: 8mi
Dew Point: 51°   Wind: 3mph
Humidity: 93%   Direction: 50°NE
Pressure: 29.95"   Gusts: NA
Location:  41.55°N, 73.96°W
Report Text: KPOU 220153Z AUTO 05003KT 8SM -RA BKN006 OVC030 12/11 A2995 RMK AO2 RAB0057E07B27 SLP139 P0004 T01170106 TSNO
Loading
Personal Weather Stations






























Interactive Weather Map
Tropical Storm Tracking
New forecast layout! Learn more

10-Day Weather Forecast

Advertisements
Track Severe Weather on mobile